createdAt,value
2019-02-14T00:00:44.661Z,1.40
2019-02-14T00:03:10.945Z,1.30
2019-02-14T00:05:37.338Z,1.30
2019-02-14T00:08:03.728Z,1.30
2019-02-14T00:10:30.130Z,1.30
2019-02-14T00:12:56.449Z,1.30
2019-02-14T00:15:22.724Z,1.30
2019-02-14T00:17:49.112Z,1.20
2019-02-14T00:20:15.466Z,1.20
2019-02-14T00:22:41.766Z,1.20
2019-02-14T00:25:09.031Z,1.20
2019-02-14T00:27:35.456Z,1.20
2019-02-14T00:30:01.930Z,1.20
2019-02-14T00:32:28.310Z,1.10
2019-02-14T00:34:54.576Z,1.20
2019-02-14T00:37:20.849Z,1.10
2019-02-14T00:39:47.169Z,1.10
2019-02-14T00:42:13.556Z,1.00
2019-02-14T00:44:39.821Z,1.00
2019-02-14T00:47:06.317Z,1.10
2019-02-14T00:49:32.716Z,1.00
2019-02-14T00:51:59.124Z,1.10
2019-02-14T00:54:25.462Z,1.10
2019-02-14T00:56:51.777Z,1.00
2019-02-14T00:59:18.176Z,1.00
2019-02-14T01:01:44.449Z,1.00
2019-02-14T01:04:10.859Z,1.00
2019-02-14T01:06:37.118Z,1.00
2019-02-14T01:09:04.930Z,0.90
2019-02-14T01:11:31.322Z,0.90
2019-02-14T01:13:57.813Z,0.80
2019-02-14T01:16:24.196Z,0.90
2019-02-14T01:18:50.564Z,0.90
2019-02-14T01:21:16.861Z,0.90
2019-02-14T01:23:43.229Z,0.90
2019-02-14T01:26:09.743Z,0.90
2019-02-14T01:28:36.056Z,0.90
2019-02-14T01:31:02.463Z,0.80
2019-02-14T01:33:28.765Z,0.80
2019-02-14T01:35:55.256Z,0.80
2019-02-14T01:38:21.669Z,0.80
2019-02-14T01:40:48.171Z,0.80
2019-02-14T01:43:14.450Z,0.80
2019-02-14T01:45:40.751Z,0.80
2019-02-14T01:48:07.410Z,0.80
2019-02-14T01:50:33.855Z,0.80
2019-02-14T01:53:00.164Z,0.80
2019-02-14T01:55:26.515Z,0.70
2019-02-14T01:57:52.911Z,0.80
2019-02-14T02:00:19.482Z,0.70
2019-02-14T02:02:45.895Z,0.70
2019-02-14T02:05:12.285Z,0.70
2019-02-14T02:07:38.670Z,0.70
2019-02-14T02:10:10.115Z,0.70
2019-02-14T02:12:36.613Z,0.70
2019-02-14T02:15:05.809Z,0.70
2019-02-14T02:17:32.220Z,0.70
2019-02-14T02:19:58.548Z,0.60
2019-02-14T02:22:25.026Z,0.60
2019-02-14T02:24:51.314Z,0.60
2019-02-14T02:27:17.810Z,0.70
2019-02-14T02:29:44.240Z,0.60
2019-02-14T02:32:10.558Z,0.60
2019-02-14T02:34:36.922Z,0.60
2019-02-14T02:37:03.412Z,0.70
2019-02-14T02:39:29.898Z,0.70
2019-02-14T02:41:56.224Z,0.70
2019-02-14T02:44:22.513Z,0.60
2019-02-14T02:46:48.925Z,0.60
2019-02-14T02:49:15.345Z,0.70
2019-02-14T02:51:41.729Z,0.70
2019-02-14T02:54:08.144Z,0.70
2019-02-14T02:56:34.589Z,0.70
2019-02-14T02:59:01.114Z,0.70
2019-02-14T03:01:27.485Z,0.70
2019-02-14T03:03:53.865Z,0.70
2019-02-14T03:06:20.231Z,0.60
2019-02-14T03:08:46.502Z,0.60
2019-02-14T03:11:13.041Z,0.60
2019-02-14T03:13:39.321Z,0.60
2019-02-14T03:16:05.604Z,0.60
2019-02-14T03:18:32.002Z,0.60
2019-02-14T03:20:58.284Z,0.60
2019-02-14T03:23:24.672Z,0.60
2019-02-14T03:25:51.110Z,0.60
2019-02-14T03:28:17.591Z,0.60
2019-02-14T03:30:44.103Z,0.60
2019-02-14T03:33:10.563Z,0.60
2019-02-14T03:35:37.083Z,0.60
2019-02-14T03:38:03.362Z,0.60
2019-02-14T03:40:29.769Z,0.60
2019-02-14T03:42:56.405Z,0.60
2019-02-14T03:45:22.930Z,0.60
2019-02-14T03:47:49.438Z,0.60
2019-02-14T03:50:15.893Z,0.60
2019-02-14T03:52:42.418Z,0.60
2019-02-14T03:55:09.504Z,0.50
2019-02-14T03:57:37.101Z,0.50
2019-02-14T04:00:10.593Z,0.50
2019-02-14T04:02:36.870Z,0.40
2019-02-14T04:05:04.652Z,0.40
2019-02-14T04:07:31.081Z,0.40
2019-02-14T04:09:57.364Z,0.40
2019-02-14T04:12:23.727Z,0.40
2019-02-14T04:14:50.138Z,0.40
2019-02-14T04:17:16.635Z,0.30
2019-02-14T04:19:43.076Z,0.30
2019-02-14T04:22:09.366Z,0.30
2019-02-14T04:24:35.673Z,0.30
2019-02-14T04:27:02.072Z,0.30
2019-02-14T04:29:28.356Z,0.30
2019-02-14T04:31:54.759Z,0.30
2019-02-14T04:34:21.200Z,0.30
2019-02-14T04:36:47.529Z,0.30
2019-02-14T04:39:13.896Z,0.30
2019-02-14T04:41:40.199Z,0.30
2019-02-14T04:44:06.569Z,0.30
2019-02-14T04:46:32.993Z,0.30
2019-02-14T04:48:59.395Z,0.20
2019-02-14T04:51:25.917Z,0.20
2019-02-14T04:53:52.344Z,0.20
2019-02-14T04:56:18.759Z,0.20
2019-02-14T04:58:45.121Z,0.20
2019-02-14T05:01:11.392Z,0.20
2019-02-14T05:03:37.850Z,0.20
2019-02-14T05:06:04.091Z,0.20
2019-02-14T05:08:30.353Z,0.20
2019-02-14T05:10:56.641Z,0.20
2019-02-14T05:13:22.944Z,0.20
2019-02-14T05:15:49.416Z,0.20
2019-02-14T05:18:15.685Z,0.20
2019-02-14T05:20:42.076Z,0.20
2019-02-14T05:23:08.487Z,0.20
2019-02-14T05:25:34.792Z,0.20
2019-02-14T05:28:01.108Z,0.20
2019-02-14T05:30:27.391Z,0.20
2019-02-14T05:32:53.797Z,0.10
2019-02-14T05:35:20.209Z,0.10
2019-02-14T05:37:46.482Z,0.10
2019-02-14T05:40:12.748Z,0.10
2019-02-14T05:42:39.176Z,0.20
2019-02-14T05:45:08.659Z,0.20
2019-02-14T05:47:35.024Z,0.20
2019-02-14T05:50:01.435Z,0.10
2019-02-14T05:52:27.909Z,0.10
2019-02-14T05:54:54.296Z,0.10
2019-02-14T05:57:20.575Z,0.10
2019-02-14T05:59:46.950Z,0.10
2019-02-14T06:02:14.254Z,0.20
2019-02-14T06:04:40.513Z,0.10
2019-02-14T06:07:06.820Z,0.10
2019-02-14T06:09:33.085Z,0.10
2019-02-14T06:11:59.445Z,0.10
2019-02-14T06:14:25.843Z,0.10
2019-02-14T06:16:52.237Z,0.10
2019-02-14T06:19:18.620Z,0.20
2019-02-14T06:21:44.914Z,0.10
2019-02-14T06:24:11.191Z,0.10
2019-02-14T06:26:37.608Z,0.10
2019-02-14T06:29:03.997Z,0.10
2019-02-14T06:31:30.270Z,0.10
2019-02-14T06:33:56.548Z,0.10
2019-02-14T06:36:22.974Z,0.10
2019-02-14T06:38:49.238Z,0.10
2019-02-14T06:41:15.536Z,0.10
2019-02-14T06:43:42.060Z,0.10
2019-02-14T06:46:08.478Z,0.10
2019-02-14T06:48:34.747Z,0.10
2019-02-14T06:51:01.134Z,0.10
2019-02-14T06:53:27.424Z,0.10
2019-02-14T06:55:53.801Z,0.10
2019-02-14T06:58:20.052Z,0.10
2019-02-14T07:00:46.387Z,0.10
2019-02-14T07:03:12.642Z,0.20
2019-02-14T07:05:39.039Z,0.20
2019-02-14T07:08:05.303Z,0.20
2019-02-14T07:10:31.807Z,0.20
2019-02-14T07:12:58.114Z,0.30
2019-02-14T07:15:24.515Z,0.30
2019-02-14T07:17:50.772Z,0.30
2019-02-14T07:20:17.320Z,0.30
2019-02-14T07:22:43.697Z,0.40
2019-02-14T07:25:10.852Z,0.40
2019-02-14T07:27:37.542Z,0.50
2019-02-14T07:30:08.589Z,0.50
2019-02-14T07:32:35.072Z,0.60
2019-02-14T07:35:01.471Z,0.60
2019-02-14T07:37:27.741Z,0.60
2019-02-14T07:39:54.124Z,0.60
2019-02-14T07:42:20.768Z,0.70
2019-02-14T07:44:47.055Z,0.70
2019-02-14T07:47:13.315Z,0.80
2019-02-14T07:49:39.642Z,0.90
2019-02-14T07:52:07.342Z,0.90
2019-02-14T07:54:33.591Z,1.00
2019-02-14T07:56:59.836Z,1.00
2019-02-14T07:59:26.118Z,1.10
2019-02-14T08:01:52.526Z,1.20
2019-02-14T08:04:21.758Z,1.20
2019-02-14T08:06:48.170Z,1.30
2019-02-14T08:09:14.482Z,1.40
2019-02-14T08:11:40.774Z,1.50
2019-02-14T08:14:07.139Z,1.50
2019-02-14T08:16:33.547Z,1.60
2019-02-14T08:19:00.153Z,1.70
2019-02-14T08:21:26.513Z,1.80
2019-02-14T08:23:52.862Z,1.90
2019-02-14T08:26:19.300Z,1.90
2019-02-14T08:28:45.566Z,2.00
2019-02-14T08:31:11.832Z,2.10
2019-02-14T08:33:38.128Z,2.20
2019-02-14T08:36:04.503Z,2.30
2019-02-14T08:38:30.781Z,2.30
2019-02-14T08:40:57.071Z,2.40
2019-02-14T08:43:23.337Z,2.40
2019-02-14T08:45:49.622Z,2.50
2019-02-14T08:48:16.006Z,2.60
2019-02-14T08:50:42.288Z,2.60
2019-02-14T08:53:08.830Z,2.70
2019-02-14T08:55:35.199Z,2.70
2019-02-14T08:58:01.460Z,2.80
2019-02-14T09:00:28.110Z,2.80
2019-02-14T09:02:54.603Z,2.90
2019-02-14T09:05:20.989Z,2.90
2019-02-14T09:07:54.198Z,2.90
2019-02-14T09:10:15.962Z,3.00
2019-02-14T09:12:42.353Z,3.00
2019-02-14T09:15:10.820Z,3.00
2019-02-14T09:17:37.276Z,3.10
2019-02-14T09:20:07.133Z,3.10
2019-02-14T09:22:33.523Z,3.10
2019-02-14T09:24:59.930Z,3.10
2019-02-14T09:27:26.351Z,3.20
2019-02-14T09:29:52.732Z,3.20
2019-02-14T09:32:20.942Z,3.20
2019-02-14T09:34:47.420Z,3.30
2019-02-14T09:37:13.739Z,3.30
2019-02-14T09:39:41.038Z,3.30
2019-02-14T09:42:07.760Z,3.40
2019-02-14T09:44:34.043Z,3.40
2019-02-14T09:47:00.430Z,3.40
2019-02-14T09:49:26.715Z,3.50
2019-02-14T09:51:53.033Z,3.60
2019-02-14T09:54:19.350Z,3.60
2019-02-14T09:56:45.628Z,3.60
2019-02-14T09:59:11.919Z,3.60
2019-02-14T10:01:38.561Z,3.60
2019-02-14T10:04:04.890Z,3.60
2019-02-14T10:06:36.717Z,3.60
2019-02-14T10:09:00.756Z,3.60
2019-02-14T10:11:28.312Z,3.60
2019-02-14T10:13:55.550Z,3.60
2019-02-14T10:16:21.922Z,3.70
2019-02-14T10:18:48.236Z,3.70
2019-02-14T10:21:14.487Z,3.80
2019-02-14T10:23:40.902Z,3.80
2019-02-14T10:26:07.253Z,3.90
2019-02-14T10:28:33.671Z,3.90
2019-02-14T10:30:59.956Z,4.00
2019-02-14T10:33:26.283Z,4.10
2019-02-14T10:35:52.704Z,4.10
2019-02-14T10:38:22.318Z,4.20
2019-02-14T10:40:47.146Z,4.20
2019-02-14T10:43:13.543Z,4.30
2019-02-14T10:45:39.901Z,4.40
2019-02-14T10:48:06.201Z,4.40
2019-02-14T10:50:32.485Z,4.50
2019-02-14T10:52:58.878Z,4.60
2019-02-14T10:55:25.219Z,4.70
2019-02-14T10:57:51.550Z,4.80
2019-02-14T11:00:24.441Z,4.80
2019-02-14T11:02:51.261Z,4.90
2019-02-14T11:05:18.023Z,5.00
2019-02-14T11:07:44.429Z,5.00
2019-02-14T11:10:12.523Z,5.00
2019-02-14T11:12:38.977Z,5.10
2019-02-14T11:15:11.530Z,5.20
2019-02-14T11:17:37.889Z,5.30
2019-02-14T11:20:06.963Z,5.30
2019-02-14T11:22:33.283Z,5.40
2019-02-14T11:24:59.582Z,5.50
2019-02-14T11:27:26.003Z,5.60
2019-02-14T11:29:52.385Z,5.70
2019-02-14T11:32:18.671Z,5.80
2019-02-14T11:34:44.952Z,5.90
2019-02-14T11:37:11.233Z,6.00
2019-02-14T11:39:37.476Z,6.10
2019-02-14T11:42:03.894Z,6.20
2019-02-14T11:44:39.312Z,6.30
2019-02-14T11:46:58.225Z,6.20
2019-02-14T11:49:24.605Z,6.30
2019-02-14T11:51:50.971Z,6.30
2019-02-14T11:54:17.252Z,6.40
2019-02-14T11:56:43.667Z,6.30
2019-02-14T11:59:09.945Z,6.20
2019-02-14T12:01:36.197Z,6.20
2019-02-14T12:04:02.703Z,6.10
2019-02-14T12:06:29.007Z,6.10
2019-02-14T12:09:00.083Z,6.20
2019-02-14T12:11:23.472Z,6.30
2019-02-14T12:13:49.868Z,6.30
2019-02-14T12:16:16.252Z,6.40
2019-02-14T12:18:42.513Z,6.50
2019-02-14T12:21:08.817Z,6.60
2019-02-14T12:23:35.203Z,6.70
2019-02-14T12:26:01.616Z,6.80
2019-02-14T12:28:27.894Z,6.90
2019-02-14T12:30:54.209Z,6.90
2019-02-14T12:33:20.700Z,7.00
2019-02-14T12:35:47.077Z,7.00
2019-02-14T12:38:13.468Z,7.10
2019-02-14T12:40:39.850Z,7.10
2019-02-14T12:43:06.092Z,7.20
2019-02-14T12:45:32.503Z,7.20
2019-02-14T12:47:58.876Z,7.30
2019-02-14T12:50:25.256Z,7.30
2019-02-14T12:52:51.627Z,7.30
2019-02-14T12:55:17.980Z,7.30
2019-02-14T12:57:44.390Z,7.30
2019-02-14T13:00:19.798Z,7.30
2019-02-14T13:02:46.118Z,7.30
2019-02-14T13:05:12.375Z,7.40
2019-02-14T13:07:38.670Z,7.50
2019-02-14T13:10:08.583Z,7.50
2019-02-14T13:12:34.860Z,7.60
2019-02-14T13:15:01.367Z,7.70
2019-02-14T13:17:27.745Z,7.70
2019-02-14T13:19:54.037Z,7.80
2019-02-14T13:22:20.389Z,7.80
2019-02-14T13:24:46.707Z,7.90
2019-02-14T13:27:12.981Z,7.90
2019-02-14T13:29:39.284Z,7.90
2019-02-14T13:32:05.581Z,7.90
2019-02-14T13:34:31.948Z,7.90
2019-02-14T13:37:01.529Z,7.90
2019-02-14T13:39:29.665Z,7.90
2019-02-14T13:41:54.524Z,7.90
2019-02-14T13:44:20.810Z,7.80
2019-02-14T13:46:47.193Z,7.80
2019-02-14T13:49:13.477Z,7.80
2019-02-14T13:51:39.860Z,7.70
2019-02-14T13:54:06.169Z,7.70
2019-02-14T13:56:32.431Z,7.70
2019-02-14T13:58:58.708Z,7.80
2019-02-14T14:01:25.128Z,8.00
2019-02-14T14:03:51.524Z,8.00
2019-02-14T14:06:17.781Z,8.10
2019-02-14T14:08:44.088Z,8.30
2019-02-14T14:11:10.452Z,8.50
2019-02-14T14:13:36.733Z,8.80
2019-02-14T14:16:03.029Z,9.10
2019-02-14T14:18:29.307Z,9.50
2019-02-14T14:20:55.617Z,9.80
2019-02-14T14:23:21.881Z,10.20
2019-02-14T14:25:48.162Z,10.60
2019-02-14T14:28:14.492Z,10.90
2019-02-14T14:30:40.834Z,11.30
2019-02-14T14:33:07.209Z,11.60
2019-02-14T14:35:33.516Z,11.90
2019-02-14T14:37:59.901Z,12.30
2019-02-14T14:40:26.363Z,12.60
2019-02-14T14:42:54.630Z,13.00
2019-02-14T14:45:39.724Z,13.20
2019-02-14T14:48:18.968Z,13.50
2019-02-14T14:50:38.456Z,13.80
2019-02-14T14:53:07.517Z,14.00
2019-02-14T14:55:34.045Z,14.20
2019-02-14T14:58:00.366Z,14.40
2019-02-14T15:00:26.865Z,14.60
2019-02-14T15:02:53.145Z,14.70
2019-02-14T15:05:19.558Z,14.90
2019-02-14T15:07:45.962Z,15.00
2019-02-14T15:10:12.284Z,15.20
2019-02-14T15:12:38.616Z,15.30
2019-02-14T15:15:06.311Z,15.40
2019-02-14T15:17:33.265Z,15.50
2019-02-14T15:19:59.623Z,15.50
2019-02-14T15:22:25.969Z,15.50
2019-02-14T15:24:52.382Z,15.50
2019-02-14T15:27:18.712Z,15.60
2019-02-14T15:29:45.031Z,15.60
2019-02-14T15:32:11.379Z,15.60
2019-02-14T15:34:37.780Z,15.60
2019-02-14T15:37:04.268Z,15.60
2019-02-14T15:39:30.764Z,15.50
2019-02-14T15:41:57.050Z,15.50
2019-02-14T15:44:23.375Z,15.40
2019-02-14T15:46:49.858Z,15.40
2019-02-14T15:49:16.243Z,15.30
2019-02-14T15:51:43.793Z,15.20
2019-02-14T15:54:11.882Z,15.10
2019-02-14T15:56:38.220Z,14.80
2019-02-14T15:59:04.705Z,14.70
2019-02-14T16:01:30.969Z,14.60
2019-02-14T16:03:57.267Z,14.30
2019-02-14T16:06:23.585Z,14.00
2019-02-14T16:08:49.981Z,13.70
2019-02-14T16:11:16.312Z,13.40
2019-02-14T16:13:42.685Z,13.10
2019-02-14T16:16:09.030Z,12.90
2019-02-14T16:18:35.503Z,12.60
2019-02-14T16:21:03.547Z,12.40
2019-02-14T16:23:31.767Z,12.20
2019-02-14T16:25:58.953Z,11.90
2019-02-14T16:28:25.387Z,11.70
2019-02-14T16:30:52.824Z,11.40
2019-02-14T16:33:19.755Z,11.20
2019-02-14T16:35:46.039Z,11.00
2019-02-14T16:38:13.933Z,10.80
2019-02-14T16:40:40.365Z,10.60
2019-02-14T16:43:06.785Z,10.40
2019-02-14T16:45:33.192Z,10.20
2019-02-14T16:47:59.495Z,10.10
2019-02-14T16:50:25.793Z,9.90
2019-02-14T16:52:52.065Z,9.70
2019-02-14T16:55:18.461Z,9.60
2019-02-14T16:57:44.940Z,9.40
2019-02-14T17:00:11.458Z,9.30
2019-02-14T17:02:37.871Z,9.10
2019-02-14T17:05:04.371Z,8.90
2019-02-14T17:07:30.664Z,8.70
2019-02-14T17:09:57.220Z,8.60
2019-02-14T17:12:23.521Z,8.50
2019-02-14T17:14:49.779Z,8.30
2019-02-14T17:17:16.189Z,8.20
2019-02-14T17:19:42.564Z,8.10
2019-02-14T17:22:08.871Z,7.80
2019-02-14T17:24:35.152Z,7.60
2019-02-14T17:27:01.530Z,7.50
2019-02-14T17:29:27.948Z,7.40
2019-02-14T17:31:54.315Z,7.30
2019-02-14T17:34:20.704Z,7.20
2019-02-14T17:36:46.993Z,7.10
2019-02-14T17:39:13.293Z,7.00
2019-02-14T17:41:39.590Z,6.90
2019-02-14T17:44:05.950Z,6.80
2019-02-14T17:46:32.238Z,6.70
2019-02-14T17:48:58.560Z,6.60
2019-02-14T17:51:24.926Z,6.40
2019-02-14T17:53:51.375Z,6.30
2019-02-14T17:56:17.612Z,6.30
2019-02-14T17:58:43.928Z,6.20
2019-02-14T18:01:10.244Z,6.10
2019-02-14T18:03:36.525Z,6.00
2019-02-14T18:06:02.953Z,6.00
2019-02-14T18:08:29.320Z,5.90
2019-02-14T18:10:55.689Z,5.80
2019-02-14T18:13:21.985Z,5.70
2019-02-14T18:15:48.247Z,5.70
2019-02-14T18:18:14.562Z,5.60
2019-02-14T18:20:43.015Z,5.50
2019-02-14T18:23:08.997Z,5.50
2019-02-14T18:25:35.382Z,5.40
2019-02-14T18:28:01.675Z,5.30
2019-02-14T18:30:28.085Z,5.20
2019-02-14T18:32:54.365Z,5.10
2019-02-14T18:35:20.781Z,5.00
2019-02-14T18:37:47.125Z,5.00
2019-02-14T18:40:13.596Z,4.90
2019-02-14T18:42:45.146Z,4.80
2019-02-14T18:45:12.474Z,4.80
2019-02-14T18:47:39.966Z,4.70
2019-02-14T18:50:09.653Z,4.70
2019-02-14T18:52:36.009Z,4.60
2019-02-14T18:55:02.495Z,4.60
2019-02-14T18:57:28.773Z,4.50
2019-02-14T18:59:55.075Z,4.50
2019-02-14T19:02:22.773Z,4.40
2019-02-14T19:04:49.110Z,4.30
2019-02-14T19:07:15.375Z,4.30
2019-02-14T19:09:41.676Z,4.20
2019-02-14T19:12:08.355Z,4.20
2019-02-14T19:14:34.750Z,4.10
2019-02-14T19:17:01.013Z,4.10
2019-02-14T19:19:27.275Z,4.00
2019-02-14T19:21:53.672Z,4.00
2019-02-14T19:24:20.027Z,3.90
2019-02-14T19:26:46.347Z,3.90
2019-02-14T19:29:12.628Z,3.80
2019-02-14T19:31:39.062Z,3.80
2019-02-14T19:34:05.534Z,3.80
2019-02-14T19:36:31.825Z,3.70
2019-02-14T19:38:58.707Z,3.60
2019-02-14T19:41:25.535Z,3.60
2019-02-14T19:43:52.054Z,3.50
2019-02-14T19:46:18.443Z,3.50
2019-02-14T19:48:44.720Z,3.40
2019-02-14T19:51:11.006Z,3.30
2019-02-14T19:53:37.306Z,3.30
2019-02-14T19:56:03.568Z,3.20
2019-02-14T19:58:29.868Z,3.20
2019-02-14T20:00:56.224Z,3.20
2019-02-14T20:03:22.552Z,3.10
2019-02-14T20:05:48.827Z,3.10
2019-02-14T20:08:15.078Z,3.10
2019-02-14T20:10:41.370Z,3.10
2019-02-14T20:13:07.728Z,3.00
2019-02-14T20:15:37.267Z,3.00
2019-02-14T20:18:02.263Z,2.90
2019-02-14T20:20:28.456Z,2.90
2019-02-14T20:22:54.840Z,2.80
2019-02-14T20:25:26.833Z,2.80
2019-02-14T20:27:53.195Z,2.80
2019-02-14T20:30:19.503Z,2.80
2019-02-14T20:32:45.832Z,2.70
2019-02-14T20:35:12.182Z,2.70
2019-02-14T20:37:38.617Z,2.60
2019-02-14T20:40:08.092Z,2.60
2019-02-14T20:42:34.454Z,2.60
2019-02-14T20:45:00.979Z,2.50
2019-02-14T20:47:27.345Z,2.50
2019-02-14T20:49:53.648Z,2.50
2019-02-14T20:52:20.109Z,2.50
2019-02-14T20:54:46.523Z,2.40
2019-02-14T20:57:12.888Z,2.40
2019-02-14T20:59:39.173Z,2.40
2019-02-14T21:02:05.940Z,2.40
2019-02-14T21:04:32.290Z,2.30
2019-02-14T21:06:58.559Z,2.30
2019-02-14T21:09:24.828Z,2.30
2019-02-14T21:11:54.729Z,2.30
2019-02-14T21:14:19.366Z,2.20
2019-02-14T21:16:45.633Z,2.20
2019-02-14T21:19:12.025Z,2.20
2019-02-14T21:21:38.445Z,2.10
2019-02-14T21:24:04.869Z,2.10
2019-02-14T21:26:31.185Z,2.10
2019-02-14T21:28:57.654Z,2.10
2019-02-14T21:31:24.102Z,2.00
2019-02-14T21:33:52.347Z,2.00
2019-02-14T21:36:18.698Z,2.00
2019-02-14T21:38:44.987Z,1.90
2019-02-14T21:41:11.510Z,1.90
2019-02-14T21:43:37.838Z,1.90
2019-02-14T21:46:04.196Z,1.90
2019-02-14T21:48:30.486Z,1.80
2019-02-14T21:50:56.802Z,1.80
2019-02-14T21:53:23.187Z,1.80
2019-02-14T21:55:49.525Z,1.70
2019-02-14T21:58:15.850Z,1.60
2019-02-14T22:00:42.213Z,1.60
2019-02-14T22:03:08.615Z,1.60
2019-02-14T22:05:35.142Z,1.60
2019-02-14T22:08:01.561Z,1.60
2019-02-14T22:10:27.982Z,1.50
2019-02-14T22:12:54.438Z,1.50
2019-02-14T22:15:26.312Z,1.50
2019-02-14T22:17:52.645Z,1.50
2019-02-14T22:20:19.015Z,1.50
2019-02-14T22:22:45.454Z,1.40
2019-02-14T22:25:11.936Z,1.40
2019-02-14T22:27:38.408Z,1.40
2019-02-14T22:30:09.328Z,1.40
2019-02-14T22:32:35.802Z,1.40
2019-02-14T22:35:02.380Z,1.40
2019-02-14T22:37:28.839Z,1.30
2019-02-14T22:39:55.163Z,1.20
2019-02-14T22:42:21.505Z,1.20
2019-02-14T22:44:47.829Z,1.20
2019-02-14T22:47:14.132Z,1.20
2019-02-14T22:49:40.525Z,1.20
2019-02-14T22:52:06.842Z,1.20
2019-02-14T22:54:33.226Z,1.20
2019-02-14T22:56:59.605Z,1.10
2019-02-14T22:59:25.952Z,1.10
2019-02-14T23:01:52.444Z,1.10
2019-02-14T23:04:18.762Z,1.10
2019-02-14T23:06:45.028Z,1.10
2019-02-14T23:09:11.504Z,1.10
2019-02-14T23:11:37.800Z,1.10
2019-02-14T23:14:04.158Z,1.00
2019-02-14T23:16:30.571Z,1.00
2019-02-14T23:18:57.047Z,1.00
2019-02-14T23:21:23.377Z,0.90
2019-02-14T23:23:49.683Z,0.90
2019-02-14T23:26:15.997Z,0.90
2019-02-14T23:28:42.395Z,0.90
2019-02-14T23:31:08.648Z,0.90
2019-02-14T23:33:34.943Z,0.90
2019-02-14T23:36:01.209Z,0.90
2019-02-14T23:38:27.476Z,0.90
2019-02-14T23:40:53.762Z,0.90
2019-02-14T23:43:20.032Z,0.80
2019-02-14T23:45:46.312Z,0.80
2019-02-14T23:48:12.694Z,0.80
2019-02-14T23:50:39.062Z,0.80
2019-02-14T23:53:05.453Z,0.80
2019-02-14T23:55:31.730Z,0.80
2019-02-14T23:57:58.096Z,0.80
